createdAt,value
2023-05-22T00:02:42.765Z,100076.28
2023-05-22T00:07:47.711Z,100075.59
2023-05-22T00:12:50.536Z,100066.56
2023-05-22T00:17:54.004Z,100073.56
2023-05-22T00:23:01.126Z,100067.44
2023-05-22T00:28:04.140Z,100058.19
2023-05-22T00:33:07.014Z,100064.63
2023-05-22T00:38:28.814Z,100058.19
2023-05-22T00:43:32.039Z,100054.91
2023-05-22T00:48:34.781Z,100060.91
2023-05-22T00:53:39.049Z,100049.94
2023-05-22T00:58:42.437Z,100046.41
2023-05-22T01:03:45.911Z,100045.69
2023-05-22T01:08:50.668Z,100046.00
2023-05-22T01:14:01.669Z,100043.59
2023-05-22T01:19:20.397Z,100043.88
2023-05-22T01:24:54.138Z,100050.91
2023-05-22T01:30:13.951Z,100049.22
2023-05-22T01:35:19.688Z,100046.25
2023-05-22T01:40:25.030Z,100048.41
2023-05-22T01:45:28.206Z,100047.09
2023-05-22T01:50:32.763Z,100050.09
2023-05-22T01:55:45.225Z,100054.25
2023-05-22T02:00:49.193Z,100052.69
2023-05-22T02:05:57.203Z,100061.13
2023-05-22T02:11:01.656Z,100052.59
2023-05-22T02:16:06.188Z,100062.88
2023-05-22T02:21:10.845Z,100055.03
2023-05-22T02:26:13.643Z,100049.03
2023-05-22T02:31:18.209Z,100047.47
2023-05-22T02:36:22.959Z,100048.78
2023-05-22T02:41:26.102Z,100043.78
2023-05-22T02:46:28.944Z,100042.06
2023-05-22T02:51:33.262Z,100045.22
2023-05-22T02:56:36.147Z,100040.22
2023-05-22T03:01:39.733Z,100044.06
2023-05-22T03:06:46.250Z,100037.78
2023-05-22T03:11:49.238Z,100039.94
2023-05-22T03:16:54.616Z,100035.66
2023-05-22T03:22:00.195Z,100030.34
2023-05-22T03:27:03.526Z,100025.34
2023-05-22T03:32:14.403Z,100015.94
2023-05-22T03:37:19.586Z,100032.19
2023-05-22T03:42:22.459Z,100021.34
2023-05-22T03:47:25.320Z,100023.78
2023-05-22T03:52:29.562Z,100018.22
2023-05-22T03:57:32.345Z,100023.78
2023-05-22T04:02:35.236Z,100018.47
2023-05-22T04:07:39.513Z,100016.78
2023-05-22T04:12:42.474Z,100015.94
2023-05-22T04:17:45.457Z,100018.94
2023-05-22T04:22:49.843Z,100023.63
2023-05-22T04:27:52.642Z,100026.34
2023-05-22T04:32:56.499Z,100029.63
2023-05-22T04:38:02.101Z,100034.38
2023-05-22T04:43:05.195Z,100029.38
2023-05-22T04:48:08.187Z,100027.50
2023-05-22T04:53:13.842Z,100033.19
2023-05-22T04:58:16.669Z,100031.22
2023-05-22T05:03:19.614Z,100032.19
2023-05-22T05:08:23.921Z,100038.66
2023-05-22T05:13:26.746Z,100030.34
2023-05-22T05:18:29.546Z,100034.06
2023-05-22T05:23:33.734Z,100029.22
2023-05-22T05:28:38.119Z,100027.38
2023-05-22T05:33:42.926Z,100031.63
2023-05-22T05:39:04.954Z,100017.34
2023-05-22T05:44:10.844Z,100028.50
2023-05-22T05:49:14.138Z,100021.81
2023-05-22T05:54:19.785Z,100024.19
2023-05-22T05:59:24.423Z,100027.22
2023-05-22T06:05:06.529Z,100031.47
2023-05-22T06:10:15.527Z,100031.53
2023-05-22T06:15:41.272Z,100034.66
2023-05-22T06:20:44.364Z,100032.19
2023-05-22T06:25:48.703Z,100025.72
2023-05-22T06:30:52.840Z,100028.41
2023-05-22T06:35:58.498Z,100027.53
2023-05-22T06:41:02.756Z,100019.22
2023-05-22T06:46:07.159Z,100014.81
2023-05-22T06:51:25.926Z,100014.94
2023-05-22T06:56:38.705Z,100012.97
2023-05-22T07:01:47.875Z,100017.94
2023-05-22T07:06:55.840Z,100022.94
2023-05-22T07:12:01.311Z,100022.78
2023-05-22T07:17:04.724Z,100021.50
2023-05-22T07:22:13.513Z,100019.53
2023-05-22T07:27:19.745Z,100021.94
2023-05-22T07:32:24.976Z,100018.09
2023-05-22T07:37:29.979Z,100011.06
2023-05-22T07:42:34.677Z,100007.34
2023-05-22T07:47:39.674Z,100005.34
2023-05-22T07:52:42.621Z,100007.94
2023-05-22T07:57:47.422Z,99998.50
2023-05-22T08:02:58.834Z,99998.50
2023-05-22T08:08:03.059Z,100007.50
2023-05-22T08:13:07.440Z,100006.66
2023-05-22T08:18:11.438Z,100008.56
2023-05-22T08:23:14.295Z,100001.66
2023-05-22T08:28:18.546Z,100006.81
2023-05-22T08:33:21.572Z,100005.03
2023-05-22T08:38:24.469Z,100004.72
2023-05-22T08:43:29.473Z,100008.16
2023-05-22T08:48:33.384Z,99998.78
2023-05-22T08:53:37.773Z,99992.41
2023-05-22T08:58:42.873Z,99991.84
2023-05-22T09:03:49.232Z,99973.78
2023-05-22T09:08:53.339Z,99974.84
2023-05-22T09:14:08.083Z,99974.66
2023-05-22T09:19:11.050Z,99967.66
2023-05-22T09:24:14.220Z,99973.09
2023-05-22T09:29:18.580Z,99964.78
2023-05-22T09:34:22.599Z,99955.38
2023-05-22T09:39:25.520Z,99955.06
2023-05-22T09:44:31.369Z,99958.09
2023-05-22T09:49:38.064Z,99947.25
2023-05-22T09:54:46.717Z,99948.81
2023-05-22T09:59:54.185Z,99941.53
2023-05-22T10:04:57.835Z,99937.66
2023-05-22T10:10:05.120Z,99932.06
2023-05-22T10:15:12.029Z,99936.53
2023-05-22T10:20:16.340Z,99933.16
2023-05-22T10:25:19.414Z,99926.59
2023-05-22T10:30:33.572Z,99919.88
2023-05-22T10:35:58.393Z,99922.59
2023-05-22T10:41:04.255Z,99911.16
2023-05-22T10:46:09.760Z,99911.72
2023-05-22T10:51:13.889Z,99904.63
2023-05-22T10:56:17.622Z,99901.47
2023-05-22T11:01:22.601Z,99895.75
2023-05-22T11:06:38.111Z,99904.19
2023-05-22T11:11:41.144Z,99901.47
2023-05-22T11:16:45.603Z,99898.59
2023-05-22T11:21:48.538Z,99899.19
2023-05-22T11:27:03.264Z,99894.47
2023-05-22T11:32:10.146Z,99888.91
2023-05-22T11:37:13.268Z,99888.34
2023-05-22T11:42:16.285Z,99875.00
2023-05-22T11:47:20.846Z,99878.97
2023-05-22T11:52:23.755Z,99870.53
2023-05-22T11:57:27.033Z,99871.53
2023-05-22T12:02:31.288Z,99860.22
2023-05-22T12:07:34.228Z,99859.59
2023-05-22T12:12:38.137Z,99853.09
2023-05-22T12:17:42.374Z,99850.31
2023-05-22T12:22:45.358Z,99844.59
2023-05-22T12:27:48.623Z,99843.91
2023-05-22T12:32:52.846Z,99835.91
2023-05-22T12:37:55.840Z,99843.75
2023-05-22T12:42:58.780Z,99832.75
2023-05-22T12:48:03.377Z,99825.84
2023-05-22T12:53:06.392Z,99830.25
2023-05-22T12:58:09.726Z,99831.69
2023-05-22T13:03:14.063Z,99826.66
2023-05-22T13:08:17.017Z,99826.69
2023-05-22T13:13:20.014Z,99819.16
2023-05-22T13:18:24.283Z,99816.59
2023-05-22T13:23:27.109Z,99804.16
2023-05-22T13:28:30.213Z,99805.00
2023-05-22T13:33:34.482Z,99803.06
2023-05-22T13:38:37.416Z,99800.81
2023-05-22T13:43:40.278Z,99795.28
2023-05-22T13:48:44.605Z,99795.13
2023-05-22T13:53:47.654Z,99791.78
2023-05-22T13:58:50.625Z,99789.00
2023-05-22T14:03:54.900Z,99782.72
2023-05-22T14:08:57.752Z,99775.53
2023-05-22T14:14:00.815Z,99779.34
2023-05-22T14:19:05.343Z,99776.78
2023-05-22T14:24:08.446Z,99767.19
2023-05-22T14:29:11.698Z,99768.41
2023-05-22T14:34:16.649Z,99755.69
2023-05-22T14:39:19.524Z,99762.81
2023-05-22T14:44:23.352Z,99752.88
2023-05-22T14:49:27.647Z,99740.88
2023-05-22T14:54:30.628Z,99748.72
2023-05-22T14:59:33.862Z,99741.50
2023-05-22T15:04:38.131Z,99731.75
2023-05-22T15:09:40.966Z,99726.41
2023-05-22T15:14:44.212Z,99734.09
2023-05-22T15:19:49.601Z,99725.56
2023-05-22T15:25:05.222Z,99713.63
2023-05-22T15:30:10.220Z,99713.63
2023-05-22T15:35:14.852Z,99706.72
2023-05-22T15:40:22.500Z,99700.06
2023-05-22T15:45:25.611Z,99700.91
2023-05-22T15:50:29.927Z,99700.50
2023-05-22T15:55:33.445Z,99701.06
2023-05-22T16:00:41.265Z,99691.59
2023-05-22T16:05:46.995Z,99694.63
2023-05-22T16:10:49.833Z,99697.25
2023-05-22T16:15:53.041Z,99696.78
2023-05-22T16:20:57.386Z,99696.66
2023-05-22T16:26:00.341Z,99691.09
2023-05-22T16:31:03.241Z,99688.63
2023-05-22T16:36:08.317Z,99691.25
2023-05-22T16:41:11.144Z,99684.50
2023-05-22T16:46:14.179Z,99683.81
2023-05-22T16:51:18.630Z,99680.56
2023-05-22T16:56:22.625Z,99679.72
2023-05-22T17:01:25.445Z,99680.72
2023-05-22T17:06:29.977Z,99671.41
2023-05-22T17:11:32.909Z,99674.88
2023-05-22T17:16:36.064Z,99677.88
2023-05-22T17:21:40.412Z,99679.09
2023-05-22T17:26:43.949Z,99678.56
2023-05-22T17:31:46.761Z,99667.03
2023-05-22T17:36:51.005Z,99675.56
2023-05-22T17:41:54.003Z,99673.53
2023-05-22T17:46:56.998Z,99665.84
2023-05-22T17:52:01.440Z,99664.47
2023-05-22T17:57:04.650Z,99667.56
2023-05-22T18:02:08.431Z,99676.53
2023-05-22T18:07:13.262Z,99672.78
2023-05-22T18:12:31.342Z,99673.78
2023-05-22T18:17:35.060Z,99669.00
2023-05-22T18:22:40.485Z,99658.38
2023-05-22T18:27:43.222Z,99658.91
2023-05-22T18:32:46.041Z,99665.41
2023-05-22T18:37:50.235Z,99663.56
2023-05-22T18:42:53.180Z,99668.72
2023-05-22T18:47:56.096Z,99673.06
2023-05-22T18:53:00.452Z,99685.22
2023-05-22T18:58:03.258Z,99689.34
2023-05-22T19:03:11.280Z,99686.84
2023-05-22T19:08:15.750Z,99684.13
2023-05-22T19:13:18.572Z,99679.03
2023-05-22T19:18:21.478Z,99683.84
2023-05-22T19:23:25.745Z,99686.88
2023-05-22T19:28:30.891Z,99691.81
2023-05-22T19:33:33.825Z,99699.16
2023-05-22T19:38:38.304Z,99696.44
2023-05-22T19:43:41.285Z,99711.72
2023-05-22T19:48:44.116Z,99711.91
2023-05-22T19:53:48.264Z,99707.00
2023-05-22T19:58:51.319Z,99702.75
2023-05-22T20:03:55.992Z,99708.38
2023-05-22T20:09:01.641Z,99733.72
2023-05-22T20:14:05.204Z,99780.69
2023-05-22T20:19:09.023Z,99740.72
2023-05-22T20:24:18.843Z,99759.41
2023-05-22T20:29:21.693Z,99754.69
2023-05-22T20:34:26.577Z,99744.44
2023-05-22T20:39:31.204Z,99748.06
2023-05-22T20:44:34.354Z,99746.69
2023-05-22T20:49:38.257Z,99740.25
2023-05-22T20:54:43.008Z,99735.47
2023-05-22T20:59:46.116Z,99732.88
2023-05-22T21:04:48.959Z,99721.84
2023-05-22T21:09:53.118Z,99716.53
2023-05-22T21:14:56.012Z,99717.75
2023-05-22T21:19:58.767Z,99712.28
2023-05-22T21:25:03.011Z,99708.03
2023-05-22T21:30:06.513Z,99691.19
2023-05-22T21:35:10.567Z,99691.69
2023-05-22T21:40:14.891Z,99677.72
2023-05-22T21:45:17.709Z,99673.28
2023-05-22T21:50:20.668Z,99679.09
2023-05-22T21:55:25.068Z,99685.03
2023-05-22T22:00:28.469Z,99694.91
2023-05-22T22:05:31.368Z,99698.66
2023-05-22T22:10:35.588Z,99705.63
2023-05-22T22:15:39.116Z,99698.31
2023-05-22T22:20:44.952Z,99713.13
2023-05-22T22:25:49.940Z,99704.94
2023-05-22T22:30:55.039Z,99707.66
2023-05-22T22:35:58.309Z,99722.97
2023-05-22T22:41:03.991Z,99720.25
2023-05-22T22:46:07.287Z,99719.56
2023-05-22T22:51:10.495Z,99717.00
2023-05-22T22:56:14.629Z,99719.91
2023-05-22T23:01:17.513Z,99715.47
2023-05-22T23:06:20.368Z,99715.78
2023-05-22T23:11:24.550Z,99704.91
2023-05-22T23:16:27.400Z,99690.63
2023-05-22T23:21:30.603Z,99681.25
2023-05-22T23:26:35.177Z,99685.31
2023-05-22T23:31:40.192Z,99672.03
2023-05-22T23:36:43.053Z,99667.22
2023-05-22T23:41:47.376Z,99668.41
2023-05-22T23:46:50.886Z,99670.25
2023-05-22T23:51:53.687Z,99666.16
2023-05-22T23:56:57.885Z,99689.81
